THY1721 LTFM-EDDB
Flight info
| Callsign | THY1721 |
|---|---|
| Flight time | N/A |
| Altitude | 40000 |
| Route | TUDBU Q26 ETUBA DCT EVRIK DCT LITKU DCT ROMIS DCT BEFRE T204 NUKRO NUKRO1R |
| Aircraft | A333/H-SDE3GHIJ2J3J5M1RVWXY/LB2D1 |
Departure
| Time | N/A |
|---|---|
| Airport | İstanbul Airport (LTFM) |
Arrival
| Time | 2026-05-08 01:12 |
|---|---|
| Airport | Berlin Brandenburg Airport (EDDB) |
| Time | Latitude | Longitude | Altitude | Speed | Heading |
|---|---|---|---|---|---|
| 2026-05-08 00:46 | 51.09390 | 14.63637 | 31264 ft | 475 kts | 345° |
| 2026-05-08 00:46 | 51.12603 | 14.62351 | 30479 ft | 469 kts | 345° |
| 2026-05-08 00:46 | 51.15739 | 14.61090 | 29801 ft | 459 kts | 345° |
| 2026-05-08 00:46 | 51.18802 | 14.59854 | 29089 ft | 441 kts | 345° |
| 2026-05-08 00:47 | 51.21737 | 14.58666 | 28450 ft | 425 kts | 345° |
| 2026-05-08 00:47 | 51.24556 | 14.57523 | 27827 ft | 411 kts | 345° |
| 2026-05-08 00:47 | 51.27342 | 14.56389 | 27290 ft | 408 kts | 345° |
| 2026-05-08 00:47 | 51.30100 | 14.55266 | 26752 ft | 404 kts | 345° |
| 2026-05-08 00:48 | 51.32797 | 14.54166 | 26272 ft | 399 kts | 345° |
| 2026-05-08 00:48 | 51.35483 | 14.53069 | 25801 ft | 394 kts | 345° |
| 2026-05-08 00:48 | 51.38144 | 14.52035 | 25328 ft | 390 kts | 349° |
| 2026-05-08 00:48 | 51.40851 | 14.51575 | 24853 ft | 385 kts | 354° |
| 2026-05-08 00:49 | 51.43493 | 14.51173 | 24357 ft | 381 kts | 354° |
| 2026-05-08 00:49 | 51.46130 | 14.50771 | 23838 ft | 378 kts | 354° |
| 2026-05-08 00:49 | 51.48767 | 14.50367 | 23300 ft | 375 kts | 354° |
| 2026-05-08 00:49 | 51.51355 | 14.49969 | 22765 ft | 373 kts | 354° |
| 2026-05-08 00:50 | 51.53928 | 14.49573 | 22229 ft | 370 kts | 354° |
| 2026-05-08 00:50 | 51.56473 | 14.49181 | 21713 ft | 367 kts | 354° |
| 2026-05-08 00:50 | 51.59042 | 14.48785 | 21198 ft | 366 kts | 354° |
| 2026-05-08 00:50 | 51.61577 | 14.48393 | 20701 ft | 365 kts | 354° |
| 2026-05-08 00:51 | 51.64120 | 14.48000 | 20203 ft | 363 kts | 354° |
| 2026-05-08 00:51 | 51.66637 | 14.47610 | 19714 ft | 362 kts | 354° |
| 2026-05-08 00:51 | 51.69122 | 14.47226 | 19234 ft | 359 kts | 354° |
| 2026-05-08 00:51 | 51.71610 | 14.46839 | 18755 ft | 358 kts | 354° |
| 2026-05-08 00:52 | 51.74067 | 14.46457 | 18282 ft | 355 kts | 354° |
| 2026-05-08 00:52 | 51.76550 | 14.46071 | 17805 ft | 353 kts | 354° |
| 2026-05-08 00:52 | 51.78977 | 14.45693 | 17336 ft | 350 kts | 354° |
| 2026-05-08 00:52 | 51.81414 | 14.45313 | 16864 ft | 348 kts | 354° |
| 2026-05-08 00:53 | 51.83830 | 14.44936 | 16389 ft | 347 kts | 354° |
| 2026-05-08 00:53 | 51.86218 | 14.44564 | 15907 ft | 346 kts | 354° |
| 2026-05-08 00:53 | 51.88631 | 14.44186 | 15448 ft | 344 kts | 354° |
| 2026-05-08 00:53 | 51.90978 | 14.43818 | 14954 ft | 343 kts | 353° |
| 2026-05-08 00:54 | 51.93372 | 14.43443 | 14473 ft | 341 kts | 354° |
| 2026-05-08 00:54 | 51.95718 | 14.43075 | 13979 ft | 340 kts | 354° |
| 2026-05-08 00:54 | 51.98082 | 14.42704 | 13479 ft | 339 kts | 354° |
| 2026-05-08 00:54 | 52.00412 | 14.42339 | 12979 ft | 338 kts | 354° |
| 2026-05-08 00:55 | 52.02737 | 14.41971 | 12493 ft | 337 kts | 354° |
| 2026-05-08 00:55 | 52.05069 | 14.41626 | 12012 ft | 336 kts | 357° |
| 2026-05-08 00:55 | 52.07352 | 14.41595 | 11900 ft | 322 kts | 359° |
| 2026-05-08 00:55 | 52.09600 | 14.41539 | 11769 ft | 317 kts | 359° |
| 2026-05-08 00:56 | 52.11787 | 14.41487 | 11640 ft | 316 kts | 359° |
| 2026-05-08 00:56 | 52.13964 | 14.41436 | 11511 ft | 315 kts | 359° |
| 2026-05-08 00:56 | 52.16170 | 14.41384 | 11378 ft | 313 kts | 359° |
| 2026-05-08 00:56 | 52.18313 | 14.41333 | 11217 ft | 307 kts | 359° |
| 2026-05-08 00:57 | 52.20410 | 14.41285 | 11059 ft | 289 kts | 359° |
| 2026-05-08 00:57 | 52.22398 | 14.41237 | 10982 ft | 287 kts | 359° |
| 2026-05-08 00:57 | 52.24369 | 14.41191 | 10862 ft | 285 kts | 359° |
| 2026-05-08 00:57 | 52.26324 | 14.41144 | 10738 ft | 277 kts | 359° |
| 2026-05-08 00:58 | 52.28215 | 14.41100 | 10588 ft | 265 kts | 359° |
| 2026-05-08 00:58 | 52.30028 | 14.41057 | 10469 ft | 253 kts | 359° |
| 2026-05-08 00:58 | 52.31771 | 14.41016 | 10448 ft | 249 kts | 359° |
| 2026-05-08 00:58 | 52.33483 | 14.40976 | 10347 ft | 248 kts | 359° |
| 2026-05-08 00:59 | 52.35220 | 14.40934 | 10261 ft | 248 kts | 359° |
| 2026-05-08 00:59 | 52.36925 | 14.40893 | 10169 ft | 245 kts | 359° |
| 2026-05-08 00:59 | 52.38630 | 14.40852 | 9963 ft | 244 kts | 359° |
| 2026-05-08 00:59 | 52.40341 | 14.40811 | 9922 ft | 246 kts | 359° |
| 2026-05-08 01:00 | 52.42047 | 14.40771 | 9825 ft | 246 kts | 359° |
| 2026-05-08 01:00 | 52.43735 | 14.40730 | 9734 ft | 244 kts | 359° |
| 2026-05-08 01:00 | 52.45433 | 14.40689 | 9693 ft | 244 kts | 359° |
| 2026-05-08 01:00 | 52.47140 | 14.40627 | 9604 ft | 244 kts | 355° |
| 2026-05-08 01:01 | 52.48771 | 14.39870 | 9408 ft | 248 kts | 340° |
| 2026-05-08 01:01 | 52.50395 | 14.38862 | 9127 ft | 248 kts | 340° |
| 2026-05-08 01:01 | 52.51994 | 14.37879 | 8872 ft | 247 kts | 340° |
| 2026-05-08 01:01 | 52.53569 | 14.36754 | 8597 ft | 246 kts | 327° |
| 2026-05-08 01:02 | 52.54679 | 14.34682 | 8366 ft | 247 kts | 296° |
| 2026-05-08 01:02 | 52.54983 | 14.31980 | 8300 ft | 240 kts | 266° |
| 2026-05-08 01:02 | 52.54782 | 14.29307 | 8135 ft | 236 kts | 264° |
| 2026-05-08 01:02 | 52.54570 | 14.26616 | 7900 ft | 236 kts | 264° |
| 2026-05-08 01:03 | 52.54339 | 14.23997 | 7673 ft | 235 kts | 257° |
| 2026-05-08 01:03 | 52.53793 | 14.21468 | 7581 ft | 236 kts | 250° |
| 2026-05-08 01:03 | 52.53212 | 14.18942 | 7512 ft | 236 kts | 250° |
| 2026-05-08 01:03 | 52.52636 | 14.16430 | 7435 ft | 236 kts | 250° |
| 2026-05-08 01:04 | 52.52053 | 14.13885 | 7353 ft | 236 kts | 250° |
| 2026-05-08 01:04 | 52.51479 | 14.11386 | 7274 ft | 236 kts | 250° |
| 2026-05-08 01:04 | 52.50901 | 14.08868 | 7208 ft | 237 kts | 250° |
| 2026-05-08 01:04 | 52.50322 | 14.06361 | 7134 ft | 237 kts | 250° |
| 2026-05-08 01:05 | 52.49737 | 14.03833 | 6970 ft | 236 kts | 250° |
| 2026-05-08 01:05 | 52.49152 | 14.01302 | 6668 ft | 239 kts | 250° |
| 2026-05-08 01:05 | 52.48564 | 13.98760 | 6334 ft | 240 kts | 250° |
| 2026-05-08 01:05 | 52.47976 | 13.96218 | 6016 ft | 237 kts | 250° |
| 2026-05-08 01:06 | 52.47397 | 13.93726 | 5693 ft | 231 kts | 250° |
| 2026-05-08 01:06 | 52.46843 | 13.91341 | 5369 ft | 222 kts | 250° |
| 2026-05-08 01:06 | 52.46299 | 13.89006 | 5056 ft | 213 kts | 250° |
| 2026-05-08 01:06 | 52.45783 | 13.86791 | 4769 ft | 208 kts | 250° |
| 2026-05-08 01:07 | 52.45266 | 13.84577 | 4474 ft | 207 kts | 250° |
| 2026-05-08 01:07 | 52.44766 | 13.82428 | 4250 ft | 198 kts | 250° |
| 2026-05-08 01:07 | 52.44290 | 13.80390 | 3985 ft | 187 kts | 250° |
| 2026-05-08 01:07 | 52.43838 | 13.78462 | 3674 ft | 178 kts | 250° |
| 2026-05-08 01:08 | 52.43402 | 13.76597 | 3413 ft | 176 kts | 250° |
| 2026-05-08 01:08 | 52.42963 | 13.74718 | 3153 ft | 176 kts | 250° |
| 2026-05-08 01:08 | 52.42523 | 13.72841 | 2893 ft | 175 kts | 250° |
| 2026-05-08 01:08 | 52.42090 | 13.70997 | 2641 ft | 175 kts | 250° |
| 2026-05-08 01:09 | 52.41653 | 13.69137 | 2382 ft | 175 kts | 249° |
| 2026-05-08 01:09 | 52.41218 | 13.67292 | 2130 ft | 174 kts | 250° |
| 2026-05-08 01:09 | 52.40794 | 13.65493 | 1877 ft | 167 kts | 250° |
| 2026-05-08 01:09 | 52.40392 | 13.63793 | 1664 ft | 154 kts | 250° |
| 2026-05-08 01:10 | 52.40013 | 13.62186 | 1434 ft | 149 kts | 250° |
| 2026-05-08 01:10 | 52.39645 | 13.60626 | 1231 ft | 145 kts | 250° |
| 2026-05-08 01:10 | 52.39289 | 13.59116 | 1039 ft | 144 kts | 250° |
| 2026-05-08 01:10 | 52.38929 | 13.57596 | 843 ft | 141 kts | 250° |
| 2026-05-08 01:11 | 52.38576 | 13.56108 | 651 ft | 139 kts | 250° |
| 2026-05-08 01:11 | 52.38227 | 13.54635 | 461 ft | 137 kts | 249° |
| 2026-05-08 01:11 | 52.37888 | 13.53200 | 269 ft | 136 kts | 249° |
| 2026-05-08 01:11 | 52.37548 | 13.51778 | 155 ft | 127 kts | 249° |
| 2026-05-08 01:12 | 52.37297 | 13.50721 | 150 ft | 66 kts | 249° |
| 2026-05-08 01:12 | 52.37201 | 13.50378 | 149 ft | 22 kts | 233° |
| 2026-05-08 01:12 | 52.37084 | 13.50205 | 148 ft | 22 kts | 220° |
| 2026-05-08 01:12 | 52.36968 | 13.50045 | 148 ft | 22 kts | 220° |
| 2026-05-08 01:13 | 52.36884 | 13.49973 | 146 ft | 10 kts | 174° |
| 2026-05-08 01:13 | 52.36811 | 13.50011 | 145 ft | 11 kts | 160° |
| 2026-05-08 01:13 | 52.36738 | 13.50067 | 145 ft | 11 kts | 137° |
| 2026-05-08 01:13 | 52.36684 | 13.50162 | 145 ft | 11 kts | 149° |
| 2026-05-08 01:14 | 52.36608 | 13.50214 | 145 ft | 10 kts | 159° |
| 2026-05-08 01:14 | 52.36575 | 13.50250 | 145 ft | 3 kts | 115° |
| 2026-05-08 01:14 | 52.36583 | 13.50309 | 145 ft | 6 kts | 71° |
| 2026-05-08 01:14 | 52.36601 | 13.50388 | 145 ft | 8 kts | 69° |
| 2026-05-08 01:15 | 52.36612 | 13.50436 | 146 ft | 0 kts | 69° |